KFKN/FKN METAR and TAF weather

Enter ICAO airport designator
Station Type Date Time Source
KFKN METAR 2019/10/18 11:55 UTC NOAA

KFKN 181155Z AUTO 00000KT 10SM CLR 03/02 A3000 RMK AO2 T00250022 10064 20012


Station Type Date Time Source
KFKN Decoded METAR 2019/10/18 11:55 UTC NOAA

Franklin / J B Rose, VA, United States (KFKN) 36-42N 076-54W
Oct 18, 2019 - 07:55 AM EDT / 2019.10.18 1155 UTC
Wind: Calm:0
Visibility: 10 mile(s):0
Sky conditions: clear
Temperature: 36.5 F (2.5 C)
Dew Point: 36.0 F (2.2 C)
Relative Humidity: 97%
Pressure (altimeter): 30 in. Hg (1015 hPa)
ob: KFKN 181155Z AUTO 00000KT 10SM CLR 03/02 A3000 RMK AO2 T00250022 10064 20012
cycle: 12

Station Type Date Time Source
KFKN TAF UTC NOAA

Error!

Example: see airport list